Commit Graph

  • bab6e3669c Add new custom DOT Application model to support OAuth2 per-application scopes. Douglas Hall 2018-06-20 09:45:51 -04:00
  • 056c1b8e99 LEARNER-5050: Adds in str serialization for celery tasks Jeff LaJoie 2018-06-20 16:13:51 -04:00
  • 9087cd4a09 Fix for header level in new SFE pages Farhanah Sheets 2018-06-20 15:28:16 -04:00
  • 1eb4d21350 Change program's course runs to be oldest with open enrollment Matt Tuchfarber 2018-06-20 13:28:01 -04:00
  • aa4fcdd84f Merge pull request #18418 from edx/update-translations-20-june Ayub-khan 2018-06-20 22:12:30 +05:00
  • 17e78d85c1 -updated-translations ayub-khan 2018-06-20 19:31:36 +05:00
  • 5c7fa062d2 Merge pull request #18406 from edx/jmbowman/TE-2593 Jeremy Bowman 2018-06-20 11:48:53 -04:00
  • 5f6069eeaa Merge pull request #18351 from edx/hack/course-health-check Farhanah Sheets 2018-06-20 11:31:05 -04:00
  • b273770934 Merge pull request #18213 from jolyonb/jolyonb/showanswer_on_attempts Simon Chen 2018-06-20 09:37:42 -04:00
  • 941c2a2e88 Merge pull request #18413 from edx/ammar/update-enterprise-version Muhammad Ammar 2018-06-20 18:14:25 +05:00
  • 29cf5be9db update enterprise version muhammad-ammar 2018-06-20 16:35:26 +05:00
  • 9b228ada89 Add Checklists to new page and to course outline view Dennis Jen 2018-06-06 16:06:28 -04:00
  • 75d71097b8 Merge pull request #18407 from edx/clee/paginate Christopher Lee 2018-06-19 16:18:11 -04:00
  • 939c7f4857 Set max page size for get courses christopher lee 2018-06-19 15:38:07 -04:00
  • 9311f268c1 TE-2593 Make pip-compile output whitespace consistent Jeremy Bowman 2018-06-19 15:09:11 -04:00
  • ebda77b22a Merge pull request #18390 from edx/clee/wafflestr Christopher Lee 2018-06-19 14:41:44 -04:00
  • 0d04453794 Merge pull request #18387 from edx/clee/courseapipagelimit Christopher Lee 2018-06-19 13:57:49 -04:00
  • 52d2b2de74 Add namespaced_name to WaffleSwitch Christopher Lee 2018-06-18 09:33:41 -04:00
  • 48b5485be1 Set max page size for get courses christopher lee 2018-06-15 18:08:55 -04:00
  • da4952eacb Merge pull request #18402 from edx/estute/reorder-a11y-script Stu Young 2018-06-19 12:23:56 -04:00
  • 365f65834b reorder env sourcing in a11y script Stuart Young 2018-06-19 10:42:18 -04:00
  • 3434c0f59b Merge pull request #18372 from edx/bmedx/retirement_reporting_queue Brian Mesick 2018-06-18 17:24:13 -04:00
  • dd688d508a PLAT-2193: Use correct default user retirement states. John Eskew 2018-06-18 17:17:33 -04:00
  • b12346f390 Merge pull request #18170 from open-craft/eugeny/instructor_report_popup_backend Braden MacDonald 2018-06-18 13:26:27 -07:00
  • 8fbe12e4cc Add retirement partner reporting queue and APIs bmedx 2018-06-05 14:20:57 -04:00
  • b8028163d3 Merge pull request #18384 from edx/clee/anonbasketcalc Christopher Lee 2018-06-18 13:43:13 -04:00
  • 6d5179571d Merge pull request #18381 from edx/estute/fixup-toxenv-var Stu Young 2018-06-18 12:48:43 -04:00
  • caca33585c Merge pull request #18386 from edx/estute/TE-2544-a11y Stu Young 2018-06-18 12:44:11 -04:00
  • 56f83b5704 Add switch to always calculate program price as anon user christopher lee 2018-06-15 13:46:38 -04:00
  • 05d8f22be1 set up tox env var for a11y scripts Stuart Young 2018-06-15 16:43:37 -04:00
  • 193c355fa3 change toxenv checking in ci script Stuart Young 2018-06-15 11:56:46 -04:00
  • 5a9d21db74 Merge pull request #18352 from edx/jlajoie/LEARNER-5050 Jeff LaJoie 2018-06-18 09:38:39 -04:00
  • b07374ed39 LEARNER-5050: Adds award course cert job to post to Credentials Jeff LaJoie 2018-06-08 15:01:42 -04:00
  • 3b5239dd27 Update translations edX Transifex Bot 2018-06-17 20:38:41 +00:00
  • d058aacca9 Return task ID and generated filename from backend Eugeny Kolpakov 2018-05-10 08:49:10 +08:00
  • 105db2cf59 Merge pull request #18385 from edx/release-mergeback-to-master Calen Pennington 2018-06-15 16:30:26 -04:00
  • 447457594f Merge pull request #18378 from edx/thallada/upgrade-SFE Tyler Hallada 2018-06-15 14:47:52 -04:00
  • 9718a38ad4 Merge pull request #18380 from edx/roux/discussions-png-hack Alessandro Roux 2018-06-15 14:47:23 -04:00
  • e72549cdbe Revert "Merge pull request #18340 from cpennington/fix-studio-xblock-rendering" Eric Fischer 2018-06-15 13:18:27 -04:00
  • dce57edafe Make a copy of the asset under the edx.org theme sandroroux 2018-06-14 17:01:39 -04:00
  • 44945dc03c Merge pull request #18377 from edx/estute/TE-2544 Stu Young 2018-06-14 15:40:22 -04:00
  • f7df8ff46e consume env var to select tox env Stuart Young 2018-06-14 11:09:48 -04:00
  • bafce09502 Upgrade SFE to 1.10.8 Tyler Hallada 2018-06-14 11:44:55 -04:00
  • 8f364f8139 Add tests to correct location Kshitij Sobti 2018-06-14 11:04:20 +05:30
  • d45636e2e1 Update tests Kshitij Sobti 2018-06-13 15:39:03 +05:30
  • e2b7d289a8 Only pass error to showErrorMessage Kshitij Sobti 2018-06-13 14:59:06 +05:30
  • b31b311294 Fix xsslint complaints John Hensley 2018-02-15 13:58:36 -05:00
  • 8f5205c768 Refactor search error messaging John Hensley 2018-02-14 14:12:46 -05:00
  • df09765ee1 Address eslint complaints John Hensley 2018-02-01 12:45:17 -05:00
  • cc8f36a94f Make response.responseJSON check still more robust John Hensley 2018-01-28 18:27:17 -05:00
  • 7980b24350 Do not assume response.responseJSON John Hensley 2018-01-28 18:07:32 -05:00
  • 1bb7db9925 Improve search error messages John Hensley 2018-01-28 09:08:23 -05:00
  • 58b9cb4938 Merge pull request #18376 from edx/LEARNER-5360/utm-update-for-social-sharing Uzair Rasheed 2018-06-14 18:24:27 +05:00
  • e77a19a4a3 Update UTM params of social sharing buttons uzairr 2018-06-14 15:51:46 +05:00
  • d7e29c210e Merge pull request #18354 from edx/EDUCATOR-3004/add-10s-delay Awais Jibran 2018-06-14 12:55:55 +05:00
  • c96bc8330c Merge pull request #18363 from edx/feanil/update_social_auth Feanil Patel 2018-06-13 22:25:03 -04:00
  • 62266fd936 Merge pull request #18325 from edx/hack/course-validation-api Nimisha Asthagiri 2018-06-13 21:33:22 -04:00
  • 8db2dd47dd Course Validation and Course Quality APIs Nimisha Asthagiri 2018-06-05 21:25:21 -04:00
  • 69092ac18b Fix unit tests with latest social-auth-* packages Jeremy Bowman 2018-06-13 16:34:19 -04:00
  • 9e3ab9909f Actually update social auth packages. Feanil Patel 2018-06-12 14:34:54 -04:00
  • 9a70ca78a5 Merge pull request #18340 from cpennington/fix-studio-xblock-rendering Calen Pennington 2018-06-13 15:58:34 -04:00
  • efd5b9abbd Merge pull request #18371 from edx/sylvia/DOC-3826 Sylvia Pearce 2018-06-13 14:35:08 -04:00
  • eb35a4105d Merge pull request #18369 from edx/testeng/bokchoy_auto_cache_update_75b254a0cbb6983193faa7a040934a2d45edbb78 Stu Young 2018-06-13 12:12:15 -04:00
  • 02b29d4bde Update export page to have same text as import page Sylvia Pearce 2018-06-13 12:04:22 -04:00
  • 1491491d21 Don't treat self-closing tags as context starters Calen Pennington 2018-06-12 22:36:12 -04:00
  • b735a127b9 Fix assorted linting errors Calen Pennington 2018-06-12 14:17:26 -04:00
  • afc6899c30 Limit the length of browser log file names Calen Pennington 2018-06-12 12:31:20 -04:00
  • 5a5b73dcfa Load xblock resources into studio *before* the corresponding xblock html Calen Pennington 2018-06-08 15:48:35 -04:00
  • 237d3114e9 Updating migrations edx-cache-uploader-bot 2018-06-13 09:14:03 -04:00
  • 386699f7aa Merge pull request #18350 from edx/ormsbee/discussion_map_storage_change David Ormsbee 2018-06-13 09:06:44 -04:00
  • b62cf12db2 Merge pull request #18362 from edx/waheed/LEARNER-5527-throttle-course-list-api Waheed Ahmed 2018-06-13 17:55:49 +05:00
  • 74c96374e0 Merge pull request #18368 from edx/ziafazal/WL-1616 Zia Fazal 2018-06-13 17:41:43 +05:00
  • 72ed987dff Enable model-caching of discussions ID mapping. David Ormsbee 2018-06-11 10:27:52 -04:00
  • 780c1d982d Rate limit course list API. Waheed Ahmed 2018-06-12 23:12:13 +05:00
  • 70b35d834f Use custom get_current_site method Zia Fazal 2018-06-13 15:17:51 +05:00
  • e274308396 Update the initial try delay to reduce the occurance of this DatabaseNotReadyError due to replica lag. EDUCATOR-3004 Awais Jibran 2018-06-11 23:25:47 +05:00
  • edb7dd6f60 Merge pull request #18360 from edx/clee/LEARNER-5166-clean-waffle Christopher Lee 2018-06-12 18:11:59 -04:00
  • f6e0c70f41 Finalize rate limit for enrollment API Christopher Lee 2018-06-12 13:18:30 -04:00
  • 285ae08d42 Merge pull request #18318 from edx/tasawer/learner-4819/update_facebook_integration Feanil Patel 2018-06-12 13:07:39 -04:00
  • d9c0d1cb7f Don't upgrade py2neo to 4.0.0 Feanil Patel 2018-06-12 12:28:55 -04:00
  • f09e79b7fa Merge pull request #18359 from edx/revert-18355-waheed/LEARNER-5527-throttle-course-list-api Albert (AJ) St. Aubin 2018-06-12 12:09:49 -04:00
  • e3c84bc8de Revert "Rate limit course list API." Albert (AJ) St. Aubin 2018-06-12 12:06:51 -04:00
  • 7290cad5b7 Run make upgrade after unpinning the social auth packages. Feanil Patel 2018-06-12 11:27:44 -04:00
  • 79e429d5cd Update facebook integration LEARNER-4819 Tasawer Nawaz 2018-06-06 15:57:28 +05:00
  • e9df135251 Merge pull request #18332 from edx/bmedx/remove_model_options_monkey_patch Brian Mesick 2018-06-12 09:43:35 -04:00
  • 95fe092e6b Merge pull request #18355 from edx/waheed/LEARNER-5527-throttle-course-list-api Waheed Ahmed 2018-06-12 16:59:27 +05:00
  • 61b777f6f6 Update translations edX Transifex Bot 2018-06-12 10:22:13 +00:00
  • 803a6c742c Rate limit course list API. Waheed Ahmed 2018-06-12 01:04:45 +05:00
  • 50c46fd9d9 Remove now-unused django_db_models_options.py bmedx 2018-06-06 16:27:31 -04:00
  • 6600e8b7e6 Merge pull request #18348 from edx/pwnage101/edxnotes-retirement-correct-url-and-user Troy Sankey 2018-06-11 12:49:33 -04:00
  • a2d16de840 Merge pull request #18307 from edx/LEARNER-4351/extract-course-run-with-highest-grade Uzair Rasheed 2018-06-11 12:49:58 +05:00
  • 6e59025501 Update translations edX Transifex Bot 2018-06-10 20:38:44 +00:00
  • 50f36603f5 Merge pull request #18346 from edx/clee/trottle3 Robert Raposa 2018-06-08 17:11:33 -04:00
  • 3172000aba [edxnotes] use the correct url and update the API params Troy Sankey 2018-06-08 14:45:39 -04:00
  • 5fadf8cca0 Merge pull request #18278 from edx/estute/TE-2573 Stu Young 2018-06-08 15:32:29 -04:00
  • 443aa7977c Change waffle flag for enrollment throttle to switch christopher lee 2018-06-08 10:58:06 -04:00
  • bfd2f1c8f8 add script to detect dead code Stuart Young 2018-05-29 14:57:07 -04:00
  • 0335b100e3 Merge pull request #18347 from edx/jeskew/bump_poll_xblock_version J Eskew 2018-06-08 13:10:06 -05:00
  • 6a268e0d76 Bump poll xblock version to 1.5.1 - removes warning. John Eskew 2018-06-08 11:00:45 -05:00
  • 49e80dcdcd Merge pull request #18334 from edx/asadiqbal08/ENT-1029-verioson-bump George Babey 2018-06-08 10:43:38 -04:00